sensor_id;sensor_type;location;lat;lon;timestamp;P1;durP1;ratioP1;P2;durP2;ratioP2
38037;SDS011;23843;51.320;12.340;2023-03-14T05:30:46;1.37;;;0.60;;
38037;SDS011;23843;51.320;12.340;2023-03-14T05:33:12;2.30;;;0.87;;
38037;SDS011;23843;51.320;12.340;2023-03-14T05:35:38;1.50;;;0.60;;
38037;SDS011;23843;51.320;12.340;2023-03-14T05:38:03;1.90;;;0.73;;
38037;SDS011;23843;51.320;12.340;2023-03-14T05:40:29;0.83;;;0.40;;
38037;SDS011;23843;51.320;12.340;2023-03-14T05:42:56;0.87;;;0.40;;
38037;SDS011;23843;51.320;12.340;2023-03-14T05:45:22;2.70;;;1.03;;
38037;SDS011;23843;51.320;12.340;2023-03-14T05:47:49;1.10;;;0.60;;
38037;SDS011;23843;51.320;12.340;2023-03-14T05:50:15;2.63;;;0.73;;
38037;SDS011;23843;51.320;12.340;2023-03-14T05:52:40;1.67;;;0.73;;
38037;SDS011;23843;51.320;12.340;2023-03-14T05:55:06;2.87;;;0.90;;
38037;SDS011;23843;51.320;12.340;2023-03-14T05:57:32;3.63;;;0.80;;
38037;SDS011;23843;51.320;12.340;2023-03-14T05:59:57;2.23;;;0.73;;
38037;SDS011;23843;51.320;12.340;2023-03-14T06:02:23;3.63;;;0.90;;
38037;SDS011;23843;51.320;12.340;2023-03-14T06:04:50;2.57;;;1.00;;
38037;SDS011;23843;51.320;12.340;2023-03-14T06:07:15;1.13;;;0.57;;
38037;SDS011;23843;51.320;12.340;2023-03-14T06:09:41;2.43;;;0.80;;
38037;SDS011;23843;51.320;12.340;2023-03-14T06:12:07;1.40;;;0.90;;
38037;SDS011;23843;51.320;12.340;2023-03-14T06:14:33;0.63;;;0.50;;
38037;SDS011;23843;51.320;12.340;2023-03-14T06:16:59;1.20;;;0.60;;
38037;SDS011;23843;51.320;12.340;2023-03-14T06:19:25;0.87;;;0.50;;
38037;SDS011;23843;51.320;12.340;2023-03-14T06:21:53;0.20;;;0.20;;
38037;SDS011;23843;51.320;12.340;2023-03-14T06:24:18;0.63;;;0.40;;
38037;SDS011;23843;51.320;12.340;2023-03-14T06:26:46;2.10;;;0.40;;
38037;SDS011;23843;51.320;12.340;2023-03-14T06:29:11;0.93;;;0.50;;
38037;SDS011;23843;51.320;12.340;2023-03-14T06:31:37;0.83;;;0.80;;
38037;SDS011;23843;51.320;12.340;2023-03-14T06:34:02;1.07;;;0.60;;
38037;SDS011;23843;51.320;12.340;2023-03-14T06:36:28;2.10;;;1.03;;
38037;SDS011;23843;51.320;12.340;2023-03-14T06:38:54;1.60;;;0.80;;
38037;SDS011;23843;51.320;12.340;2023-03-14T06:41:20;1.37;;;0.60;;
38037;SDS011;23843;51.320;12.340;2023-03-14T06:43:45;1.37;;;0.70;;
38037;SDS011;23843;51.320;12.340;2023-03-14T06:46:11;1.03;;;0.47;;
38037;SDS011;23843;51.320;12.340;2023-03-14T06:48:36;3.03;;;1.40;;
38037;SDS011;23843;51.320;12.340;2023-03-14T06:51:02;2.00;;;1.20;;
38037;SDS011;23843;51.320;12.340;2023-03-14T06:53:28;1.63;;;0.60;;
38037;SDS011;23843;51.320;12.340;2023-03-14T06:55:55;1.67;;;0.80;;
38037;SDS011;23843;51.320;12.340;2023-03-14T06:58:21;0.63;;;0.47;;
38037;SDS011;23843;51.320;12.340;2023-03-14T07:00:47;1.30;;;0.47;;
38037;SDS011;23843;51.320;12.340;2023-03-14T07:03:13;0.87;;;0.50;;
38037;SDS011;23843;51.320;12.340;2023-03-14T07:05:39;0.90;;;0.63;;
38037;SDS011;23843;51.320;12.340;2023-03-14T07:08:04;0.70;;;0.40;;
38037;SDS011;23843;51.320;12.340;2023-03-14T07:10:30;1.10;;;0.57;;
38037;SDS011;23843;51.320;12.340;2023-03-14T07:12:57;1.07;;;0.50;;
38037;SDS011;23843;51.320;12.340;2023-03-14T07:15:23;1.43;;;0.60;;
38037;SDS011;23843;51.320;12.340;2023-03-14T07:17:49;1.70;;;0.70;;
38037;SDS011;23843;51.320;12.340;2023-03-14T07:20:16;1.60;;;0.80;;
38037;SDS011;23843;51.320;12.340;2023-03-14T07:22:43;1.63;;;0.90;;
38037;SDS011;23843;51.320;12.340;2023-03-14T07:25:09;2.73;;;1.30;;
38037;SDS011;23843;51.320;12.340;2023-03-14T07:27:35;2.30;;;1.30;;
38037;SDS011;23843;51.320;12.340;2023-03-14T07:30:03;1.30;;;0.90;;
38037;SDS011;23843;51.320;12.340;2023-03-14T07:32:30;1.30;;;0.87;;
38037;SDS011;23843;51.320;12.340;2023-03-14T07:34:56;1.00;;;0.73;;
38037;SDS011;23843;51.320;12.340;2023-03-14T07:37:22;1.20;;;0.60;;
38037;SDS011;23843;51.320;12.340;2023-03-14T07:39:49;1.33;;;0.70;;
38037;SDS011;23843;51.320;12.340;2023-03-14T07:42:16;1.53;;;0.60;;
38037;SDS011;23843;51.320;12.340;2023-03-14T07:44:43;0.90;;;0.60;;
38037;SDS011;23843;51.320;12.340;2023-03-14T07:47:10;2.03;;;0.90;;
38037;SDS011;23843;51.320;12.340;2023-03-14T07:49:35;1.83;;;0.80;;
38037;SDS011;23843;51.320;12.340;2023-03-14T07:52:01;0.90;;;0.60;;
38037;SDS011;23843;51.320;12.340;2023-03-14T07:54:27;1.73;;;1.10;;
38037;SDS011;23843;51.320;12.340;2023-03-14T07:56:52;1.80;;;0.60;;
38037;SDS011;23843;51.320;12.340;2023-03-14T07:59:18;1.67;;;0.83;;
38037;SDS011;23843;51.320;12.340;2023-03-14T08:01:43;1.67;;;0.80;;
38037;SDS011;23843;51.320;12.340;2023-03-14T08:04:10;1.43;;;0.70;;
38037;SDS011;23843;51.320;12.340;2023-03-14T08:06:36;2.23;;;0.70;;
38037;SDS011;23843;51.320;12.340;2023-03-14T08:09:03;1.53;;;0.50;;
38037;SDS011;23843;51.320;12.340;2023-03-14T08:11:32;0.70;;;0.53;;
38037;SDS011;23843;51.320;12.340;2023-03-14T08:13:59;1.80;;;0.83;;
38037;SDS011;23843;51.320;12.340;2023-03-14T08:16:26;0.70;;;0.70;;
38037;SDS011;23843;51.320;12.340;2023-03-14T08:18:52;1.43;;;0.67;;
38037;SDS011;23843;51.320;12.340;2023-03-14T08:21:19;0.60;;;0.40;;
38037;SDS011;23843;51.320;12.340;2023-03-14T08:23:44;1.20;;;0.60;;
38037;SDS011;23843;51.320;12.340;2023-03-14T08:26:10;1.37;;;0.63;;
38037;SDS011;23843;51.320;12.340;2023-03-14T08:28:36;1.77;;;0.63;;
38037;SDS011;23843;51.320;12.340;2023-03-14T08:31:06;1.63;;;0.60;;
38037;SDS011;23843;51.320;12.340;2023-03-14T08:33:31;1.03;;;0.60;;
38037;SDS011;23843;51.320;12.340;2023-03-14T08:35:58;1.43;;;0.63;;
38037;SDS011;23843;51.320;12.340;2023-03-14T08:38:27;1.27;;;0.70;;
38037;SDS011;23843;51.320;12.340;2023-03-14T08:40:56;0.80;;;0.53;;
38037;SDS011;23843;51.320;12.340;2023-03-14T08:43:22;1.00;;;0.57;;
38037;SDS011;23843;51.320;12.340;2023-03-14T08:45:47;0.93;;;0.40;;
38037;SDS011;23843;51.320;12.340;2023-03-14T08:48:13;2.20;;;0.80;;
38037;SDS011;23843;51.320;12.340;2023-03-14T08:50:39;1.33;;;0.53;;
38037;SDS011;23843;51.320;12.340;2023-03-14T08:53:04;1.30;;;0.50;;
38037;SDS011;23843;51.320;12.340;2023-03-14T08:55:31;0.80;;;0.50;;
38037;SDS011;23843;51.320;12.340;2023-03-14T08:58:01;1.90;;;0.57;;
38037;SDS011;23843;51.320;12.340;2023-03-14T09:00:26;0.57;;;0.40;;
38037;SDS011;23843;51.320;12.340;2023-03-14T09:02:53;1.30;;;0.60;;
38037;SDS011;23843;51.320;12.340;2023-03-14T09:05:19;1.63;;;0.77;;
38037;SDS011;23843;51.320;12.340;2023-03-14T09:07:45;3.17;;;1.20;;
38037;SDS011;23843;51.320;12.340;2023-03-14T09:10:11;1.60;;;1.00;;
38037;SDS011;23843;51.320;12.340;2023-03-14T09:12:37;1.63;;;1.40;;
38037;SDS011;23843;51.320;12.340;2023-03-14T09:15:04;1.43;;;0.60;;
38037;SDS011;23843;51.320;12.340;2023-03-14T09:17:31;1.03;;;0.50;;
38037;SDS011;23843;51.320;12.340;2023-03-14T09:19:57;0.90;;;0.47;;
38037;SDS011;23843;51.320;12.340;2023-03-14T09:22:24;1.00;;;0.50;;
38037;SDS011;23843;51.320;12.340;2023-03-14T09:24:49;1.87;;;0.50;;
38037;SDS011;23843;51.320;12.340;2023-03-14T09:27:15;0.83;;;0.50;;
38037;SDS011;23843;51.320;12.340;2023-03-14T09:29:42;0.63;;;0.50;;
38037;SDS011;23843;51.320;12.340;2023-03-14T09:32:08;2.10;;;0.50;;
38037;SDS011;23843;51.320;12.340;2023-03-14T09:34:34;0.80;;;0.40;;
38037;SDS011;23843;51.320;12.340;2023-03-14T09:37:00;1.23;;;0.50;;
38037;SDS011;23843;51.320;12.340;2023-03-14T09:39:26;1.10;;;0.50;;
38037;SDS011;23843;51.320;12.340;2023-03-14T09:41:52;0.93;;;0.60;;
38037;SDS011;23843;51.320;12.340;2023-03-14T09:44:22;2.50;;;0.90;;
38037;SDS011;23843;51.320;12.340;2023-03-14T09:46:52;1.63;;;0.60;;
38037;SDS011;23843;51.320;12.340;2023-03-14T09:49:20;1.37;;;0.50;;
38037;SDS011;23843;51.320;12.340;2023-03-14T09:51:49;1.37;;;1.10;;
38037;SDS011;23843;51.320;12.340;2023-03-14T09:54:18;0.47;;;0.47;;
38037;SDS011;23843;51.320;12.340;2023-03-14T09:56:58;1.20;;;0.60;;
38037;SDS011;23843;51.320;12.340;2023-03-14T09:59:25;1.23;;;0.60;;
38037;SDS011;23843;51.320;12.340;2023-03-14T10:01:53;1.93;;;0.80;;
38037;SDS011;23843;51.320;12.340;2023-03-14T10:04:21;1.40;;;0.67;;
38037;SDS011;23843;51.320;12.340;2023-03-14T10:06:48;0.80;;;0.73;;
38037;SDS011;23843;51.320;12.340;2023-03-14T10:09:17;1.67;;;0.70;;
38037;SDS011;23843;51.320;12.340;2023-03-14T10:11:45;2.43;;;0.70;;
38037;SDS011;23843;51.320;12.340;2023-03-14T10:14:12;0.97;;;0.60;;
38037;SDS011;23843;51.320;12.340;2023-03-14T10:16:40;1.23;;;0.57;;
38037;SDS011;23843;51.320;12.340;2023-03-14T10:19:10;1.80;;;0.80;;
38037;SDS011;23843;51.320;12.340;2023-03-14T10:21:37;1.33;;;0.50;;
38037;SDS011;23843;51.320;12.340;2023-03-14T10:24:07;1.70;;;0.80;;
38037;SDS011;23843;51.320;12.340;2023-03-14T10:26:35;1.33;;;0.77;;
38037;SDS011;23843;51.320;12.340;2023-03-14T10:29:02;2.93;;;0.93;;
38037;SDS011;23843;51.320;12.340;2023-03-14T10:31:45;2.13;;;1.00;;
38037;SDS011;23843;51.320;12.340;2023-03-14T10:34:15;1.93;;;1.00;;
38037;SDS011;23843;51.320;12.340;2023-03-14T10:36:42;1.97;;;0.70;;
38037;SDS011;23843;51.320;12.340;2023-03-14T10:39:21;1.57;;;0.67;;
38037;SDS011;23843;51.320;12.340;2023-03-14T10:41:50;1.47;;;0.70;;
38037;SDS011;23843;51.320;12.340;2023-03-14T10:44:19;1.80;;;0.70;;
38037;SDS011;23843;51.320;12.340;2023-03-14T10:46:47;1.30;;;0.60;;
38037;SDS011;23843;51.320;12.340;2023-03-14T10:49:27;1.10;;;0.50;;
38037;SDS011;23843;51.320;12.340;2023-03-14T10:51:54;1.50;;;0.70;;
38037;SDS011;23843;51.320;12.340;2023-03-14T10:54:20;0.60;;;0.60;;
38037;SDS011;23843;51.320;12.340;2023-03-14T10:56:55;1.33;;;0.40;;
38037;SDS011;23843;51.320;12.340;2023-03-14T10:59:21;1.20;;;0.50;;
38037;SDS011;23843;51.320;12.340;2023-03-14T11:01:48;2.23;;;0.60;;
38037;SDS011;23843;51.320;12.340;2023-03-14T11:04:24;0.70;;;0.50;;
38037;SDS011;23843;51.320;12.340;2023-03-14T11:07:06;1.23;;;0.40;;
38037;SDS011;23843;51.320;12.340;2023-03-14T11:09:38;1.10;;;0.70;;
38037;SDS011;23843;51.320;12.340;2023-03-14T11:12:15;1.60;;;0.50;;
38037;SDS011;23843;51.320;12.340;2023-03-14T11:14:54;1.30;;;0.60;;
38037;SDS011;23843;51.320;12.340;2023-03-14T11:17:25;1.50;;;0.50;;
38037;SDS011;23843;51.320;12.340;2023-03-14T11:20:04;0.40;;;0.40;;
38037;SDS011;23843;51.320;12.340;2023-03-14T11:22:46;2.20;;;0.40;;
38037;SDS011;23843;51.320;12.340;2023-03-14T11:25:25;0.60;;;0.30;;
38037;SDS011;23843;51.320;12.340;2023-03-14T11:27:56;0.50;;;0.40;;
38037;SDS011;23843;51.320;12.340;2023-03-14T11:30:31;0.80;;;0.30;;
38037;SDS011;23843;51.320;12.340;2023-03-14T11:33:02;0.63;;;0.37;;
38037;SDS011;23843;51.320;12.340;2023-03-14T11:35:36;1.07;;;0.40;;
38037;SDS011;23843;51.320;12.340;2023-03-14T11:38:13;1.73;;;0.63;;
38037;SDS011;23843;51.320;12.340;2023-03-14T11:40:43;0.70;;;0.50;;
38037;SDS011;23843;51.320;12.340;2023-03-14T11:43:13;1.80;;;0.90;;
38037;SDS011;23843;51.320;12.340;2023-03-14T11:45:44;1.50;;;0.47;;
38037;SDS011;23843;51.320;12.340;2023-03-14T11:48:15;0.77;;;0.50;;
38037;SDS011;23843;51.320;12.340;2023-03-14T11:50:47;0.40;;;0.40;;
38037;SDS011;23843;51.320;12.340;2023-03-14T11:53:18;0.30;;;0.30;;
38037;SDS011;23843;51.320;12.340;2023-03-14T11:55:47;0.40;;;0.37;;
38037;SDS011;23843;51.320;12.340;2023-03-14T11:58:14;0.40;;;0.30;;
38037;SDS011;23843;51.320;12.340;2023-03-14T12:00:43;0.67;;;0.30;;
38037;SDS011;23843;51.320;12.340;2023-03-14T12:03:14;1.13;;;1.03;;
38037;SDS011;23843;51.320;12.340;2023-03-14T12:05:50;1.03;;;0.70;;
38037;SDS011;23843;51.320;12.340;2023-03-14T12:11:10;0.90;;;0.50;;
38037;SDS011;23843;51.320;12.340;2023-03-14T12:13:39;1.37;;;0.60;;
38037;SDS011;23843;51.320;12.340;2023-03-14T12:16:09;0.60;;;0.57;;
38037;SDS011;23843;51.320;12.340;2023-03-14T12:22:17;1.00;;;0.40;;
38037;SDS011;23843;51.320;12.340;2023-03-14T12:24:50;0.40;;;0.40;;
38037;SDS011;23843;51.320;12.340;2023-03-14T12:30:13;0.40;;;0.40;;
38037;SDS011;23843;51.320;12.340;2023-03-14T12:32:43;0.53;;;0.40;;
38037;SDS011;23843;51.320;12.340;2023-03-14T12:35:45;0.60;;;0.40;;
38037;SDS011;23843;51.320;12.340;2023-03-14T12:38:14;1.43;;;0.30;;
38037;SDS011;23843;51.320;12.340;2023-03-14T12:40:48;0.77;;;0.40;;
38037;SDS011;23843;51.320;12.340;2023-03-14T12:43:25;0.60;;;0.40;;
38037;SDS011;23843;51.320;12.340;2023-03-14T12:48:47;0.30;;;0.30;;
38037;SDS011;23843;51.320;12.340;2023-03-14T12:51:15;0.30;;;0.30;;
38037;SDS011;23843;51.320;12.340;2023-03-14T12:56:55;2.00;;;0.40;;
38037;SDS011;23843;51.320;12.340;2023-03-14T12:59:30;0.77;;;0.40;;
38037;SDS011;23843;51.320;12.340;2023-03-14T13:02:12;0.57;;;0.57;;
38037;SDS011;23843;51.320;12.340;2023-03-14T13:04:45;0.67;;;0.33;;
38037;SDS011;23843;51.320;12.340;2023-03-14T13:07:28;1.30;;;0.70;;
38037;SDS011;23843;51.320;12.340;2023-03-14T13:10:14;0.67;;;0.30;;
38037;SDS011;23843;51.320;12.340;2023-03-14T13:12:45;0.50;;;0.40;;
38037;SDS011;23843;51.320;12.340;2023-03-14T13:15:18;0.73;;;0.40;;
38037;SDS011;23843;51.320;12.340;2023-03-14T13:17:49;1.40;;;0.57;;
38037;SDS011;23843;51.320;12.340;2023-03-14T13:20:18;1.73;;;0.40;;
38037;SDS011;23843;51.320;12.340;2023-03-14T13:22:51;0.40;;;0.30;;
38037;SDS011;23843;51.320;12.340;2023-03-14T13:25:18;1.70;;;0.47;;
38037;SDS011;23843;51.320;12.340;2023-03-14T13:27:44;0.57;;;0.50;;
38037;SDS011;23843;51.320;12.340;2023-03-14T13:30:18;0.90;;;0.77;;
38037;SDS011;23843;51.320;12.340;2023-03-14T13:32:47;1.50;;;1.40;;
38037;SDS011;23843;51.320;12.340;2023-03-14T13:35:15;1.00;;;0.60;;
38037;SDS011;23843;51.320;12.340;2023-03-14T13:37:42;1.10;;;0.40;;
38037;SDS011;23843;51.320;12.340;2023-03-14T13:40:18;1.70;;;0.50;;
38037;SDS011;23843;51.320;12.340;2023-03-14T13:42:45;0.57;;;0.40;;
38037;SDS011;23843;51.320;12.340;2023-03-14T13:45:12;0.67;;;0.40;;
38037;SDS011;23843;51.320;12.340;2023-03-14T13:47:38;0.80;;;0.60;;
38037;SDS011;23843;51.320;12.340;2023-03-14T13:50:05;0.50;;;0.40;;
38037;SDS011;23843;51.320;12.340;2023-03-14T13:52:38;0.40;;;0.40;;
38037;SDS011;23843;51.320;12.340;2023-03-14T13:55:04;0.20;;;0.20;;
38037;SDS011;23843;51.320;12.340;2023-03-14T13:57:47;0.20;;;0.20;;
38037;SDS011;23843;51.320;12.340;2023-03-14T14:00:17;0.30;;;0.30;;
38037;SDS011;23843;51.320;12.340;2023-03-14T14:02:45;0.20;;;0.20;;
38037;SDS011;23843;51.320;12.340;2023-03-14T14:05:11;0.83;;;0.40;;
38037;SDS011;23843;51.320;12.340;2023-03-14T14:07:39;0.40;;;0.30;;
38037;SDS011;23843;51.320;12.340;2023-03-14T14:10:05;1.20;;;0.40;;
38037;SDS011;23843;51.320;12.340;2023-03-14T14:12:36;0.83;;;0.20;;
38037;SDS011;23843;51.320;12.340;2023-03-14T14:15:07;0.40;;;0.30;;
38037;SDS011;23843;51.320;12.340;2023-03-14T14:17:38;0.53;;;0.40;;
38037;SDS011;23843;51.320;12.340;2023-03-14T14:20:07;0.30;;;0.23;;
38037;SDS011;23843;51.320;12.340;2023-03-14T14:22:38;1.00;;;0.70;;
38037;SDS011;23843;51.320;12.340;2023-03-14T14:25:06;0.30;;;0.30;;
38037;SDS011;23843;51.320;12.340;2023-03-14T14:27:33;0.40;;;0.40;;
38037;SDS011;23843;51.320;12.340;2023-03-14T14:30:03;0.57;;;0.53;;
38037;SDS011;23843;51.320;12.340;2023-03-14T14:32:36;0.53;;;0.50;;
38037;SDS011;23843;51.320;12.340;2023-03-14T14:35:02;0.37;;;0.37;;
38037;SDS011;23843;51.320;12.340;2023-03-14T14:37:30;0.37;;;0.33;;
38037;SDS011;23843;51.320;12.340;2023-03-14T14:39:57;0.80;;;0.33;;
38037;SDS011;23843;51.320;12.340;2023-03-14T14:42:25;0.30;;;0.30;;
38037;SDS011;23843;51.320;12.340;2023-03-14T14:44:55;2.17;;;0.50;;
38037;SDS011;23843;51.320;12.340;2023-03-14T14:47:22;1.80;;;0.50;;
38037;SDS011;23843;51.320;12.340;2023-03-14T14:49:52;0.60;;;0.60;;
38037;SDS011;23843;51.320;12.340;2023-03-14T14:52:20;0.60;;;0.50;;
38037;SDS011;23843;51.320;12.340;2023-03-14T14:54:51;2.00;;;0.40;;
38037;SDS011;23843;51.320;12.340;2023-03-14T14:57:18;0.40;;;0.30;;
38037;SDS011;23843;51.320;12.340;2023-03-14T14:59:47;0.80;;;0.50;;
38037;SDS011;23843;51.320;12.340;2023-03-14T15:02:29;0.40;;;0.20;;
38037;SDS011;23843;51.320;12.340;2023-03-14T15:04:58;0.30;;;0.20;;
38037;SDS011;23843;51.320;12.340;2023-03-14T15:07:24;0.90;;;0.50;;
38037;SDS011;23843;51.320;12.340;2023-03-14T15:09:50;0.30;;;0.30;;
38037;SDS011;23843;51.320;12.340;2023-03-14T15:12:16;0.30;;;0.30;;
38037;SDS011;23843;51.320;12.340;2023-03-14T15:14:43;0.87;;;0.60;;
38037;SDS011;23843;51.320;12.340;2023-03-14T15:17:09;1.20;;;0.80;;
38037;SDS011;23843;51.320;12.340;2023-03-14T15:19:35;1.20;;;0.60;;
38037;SDS011;23843;51.320;12.340;2023-03-14T15:22:03;1.47;;;0.60;;
38037;SDS011;23843;51.320;12.340;2023-03-14T15:24:29;2.83;;;0.50;;
38037;SDS011;23843;51.320;12.340;2023-03-14T15:26:56;1.30;;;0.50;;
38037;SDS011;23843;51.320;12.340;2023-03-14T15:29:21;1.53;;;0.70;;
38037;SDS011;23843;51.320;12.340;2023-03-14T15:31:47;4.33;;;2.00;;
38037;SDS011;23843;51.320;12.340;2023-03-14T15:34:13;2.57;;;1.57;;
38037;SDS011;23843;51.320;12.340;2023-03-14T15:36:38;1.67;;;0.80;;
38037;SDS011;23843;51.320;12.340;2023-03-14T15:39:06;1.07;;;0.60;;
38037;SDS011;23843;51.320;12.340;2023-03-14T15:41:31;1.20;;;0.50;;
38037;SDS011;23843;51.320;12.340;2023-03-14T15:43:57;1.03;;;0.67;;
38037;SDS011;23843;51.320;12.340;2023-03-14T15:46:23;0.93;;;0.40;;
38037;SDS011;23843;51.320;12.340;2023-03-14T15:48:49;1.47;;;0.60;;
38037;SDS011;23843;51.320;12.340;2023-03-14T15:51:16;0.40;;;0.40;;
38037;SDS011;23843;51.320;12.340;2023-03-14T15:53:42;1.43;;;1.10;;
38037;SDS011;23843;51.320;12.340;2023-03-14T15:56:11;0.53;;;0.40;;
38037;SDS011;23843;51.320;12.340;2023-03-14T15:58:38;0.97;;;0.43;;
38037;SDS011;23843;51.320;12.340;2023-03-14T16:01:04;0.93;;;0.30;;
38037;SDS011;23843;51.320;12.340;2023-03-14T16:03:30;0.90;;;0.60;;
38037;SDS011;23843;51.320;12.340;2023-03-14T16:05:57;1.27;;;0.70;;
38037;SDS011;23843;51.320;12.340;2023-03-14T16:08:23;0.87;;;0.50;;
38037;SDS011;23843;51.320;12.340;2023-03-14T16:10:49;0.73;;;0.63;;
38037;SDS011;23843;51.320;12.340;2023-03-14T16:13:16;0.60;;;0.50;;
38037;SDS011;23843;51.320;12.340;2023-03-14T16:15:42;0.50;;;0.40;;
38037;SDS011;23843;51.320;12.340;2023-03-14T16:18:07;2.47;;;1.57;;
38037;SDS011;23843;51.320;12.340;2023-03-14T16:20:33;1.63;;;1.00;;
38037;SDS011;23843;51.320;12.340;2023-03-14T16:22:59;1.90;;;0.70;;
38037;SDS011;23843;51.320;12.340;2023-03-14T16:25:26;1.43;;;0.60;;
38037;SDS011;23843;51.320;12.340;2023-03-14T16:27:52;1.40;;;0.90;;
38037;SDS011;23843;51.320;12.340;2023-03-14T16:30:20;0.93;;;0.80;;
38037;SDS011;23843;51.320;12.340;2023-03-14T16:32:46;2.07;;;0.50;;
38037;SDS011;23843;51.320;12.340;2023-03-14T16:35:13;1.63;;;1.00;;
38037;SDS011;23843;51.320;12.340;2023-03-14T16:37:39;1.10;;;0.83;;
38037;SDS011;23843;51.320;12.340;2023-03-14T16:40:06;1.53;;;0.90;;
38037;SDS011;23843;51.320;12.340;2023-03-14T16:42:34;2.17;;;0.60;;
38037;SDS011;23843;51.320;12.340;2023-03-14T16:45:00;1.93;;;0.60;;
38037;SDS011;23843;51.320;12.340;2023-03-14T16:47:27;3.43;;;1.03;;
38037;SDS011;23843;51.320;12.340;2023-03-14T16:49:52;3.80;;;0.90;;
38037;SDS011;23843;51.320;12.340;2023-03-14T16:52:19;2.27;;;0.90;;
38037;SDS011;23843;51.320;12.340;2023-03-14T16:54:45;1.07;;;0.70;;
38037;SDS011;23843;51.320;12.340;2023-03-14T16:57:14;3.83;;;1.33;;
38037;SDS011;23843;51.320;12.340;2023-03-14T16:59:41;2.50;;;1.30;;
38037;SDS011;23843;51.320;12.340;2023-03-14T17:02:07;4.90;;;1.80;;
38037;SDS011;23843;51.320;12.340;2023-03-14T17:04:38;6.57;;;2.70;;
38037;SDS011;23843;51.320;12.340;2023-03-14T17:07:04;4.20;;;1.90;;
38037;SDS011;23843;51.320;12.340;2023-03-14T17:09:31;3.07;;;1.30;;
38037;SDS011;23843;51.320;12.340;2023-03-14T17:11:57;4.10;;;1.30;;
38037;SDS011;23843;51.320;12.340;2023-03-14T17:14:24;3.07;;;1.20;;
38037;SDS011;23843;51.320;12.340;2023-03-14T17:16:51;1.67;;;0.93;;
38037;SDS011;23843;51.320;12.340;2023-03-14T17:19:17;1.93;;;0.90;;
38037;SDS011;23843;51.320;12.340;2023-03-14T17:21:45;3.57;;;1.40;;
38037;SDS011;23843;51.320;12.340;2023-03-14T17:24:11;2.60;;;1.23;;
38037;SDS011;23843;51.320;12.340;2023-03-14T17:26:40;2.73;;;1.50;;
38037;SDS011;23843;51.320;12.340;2023-03-14T17:29:06;2.87;;;0.80;;
38037;SDS011;23843;51.320;12.340;2023-03-14T17:31:32;1.77;;;1.00;;
38037;SDS011;23843;51.320;12.340;2023-03-14T17:33:58;1.03;;;0.70;;
38037;SDS011;23843;51.320;12.340;2023-03-14T17:36:23;1.73;;;0.90;;
38037;SDS011;23843;51.320;12.340;2023-03-14T17:38:51;1.27;;;0.77;;
38037;SDS011;23843;51.320;12.340;2023-03-14T17:41:17;1.23;;;0.80;;
38037;SDS011;23843;51.320;12.340;2023-03-14T17:43:45;2.53;;;0.70;;
38037;SDS011;23843;51.320;12.340;2023-03-14T17:46:12;3.20;;;1.10;;
38037;SDS011;23843;51.320;12.340;2023-03-14T17:48:39;2.77;;;1.30;;
38037;SDS011;23843;51.320;12.340;2023-03-14T17:51:06;2.93;;;1.60;;
38037;SDS011;23843;51.320;12.340;2023-03-14T17:53:32;2.27;;;1.23;;
38037;SDS011;23843;51.320;12.340;2023-03-14T17:56:00;3.27;;;1.20;;
38037;SDS011;23843;51.320;12.340;2023-03-14T17:58:26;3.47;;;1.80;;
38037;SDS011;23843;51.320;12.340;2023-03-14T18:00:53;4.50;;;1.93;;
38037;SDS011;23843;51.320;12.340;2023-03-14T18:03:19;2.70;;;1.70;;
38037;SDS011;23843;51.320;12.340;2023-03-14T18:05:45;2.97;;;1.33;;
38037;SDS011;23843;51.320;12.340;2023-03-14T18:08:12;3.20;;;1.50;;
38037;SDS011;23843;51.320;12.340;2023-03-14T18:10:39;2.83;;;1.23;;
38037;SDS011;23843;51.320;12.340;2023-03-14T18:13:07;3.47;;;1.43;;
38037;SDS011;23843;51.320;12.340;2023-03-14T18:15:33;4.63;;;1.73;;
38037;SDS011;23843;51.320;12.340;2023-03-14T18:17:59;4.10;;;1.40;;
38037;SDS011;23843;51.320;12.340;2023-03-14T18:20:25;3.43;;;1.30;;
38037;SDS011;23843;51.320;12.340;2023-03-14T18:22:51;4.63;;;1.43;;
38037;SDS011;23843;51.320;12.340;2023-03-14T18:25:17;3.33;;;1.20;;
38037;SDS011;23843;51.320;12.340;2023-03-14T18:27:45;5.60;;;1.37;;
38037;SDS011;23843;51.320;12.340;2023-03-14T18:30:13;2.23;;;1.00;;
38037;SDS011;23843;51.320;12.340;2023-03-14T18:32:39;5.50;;;1.60;;
38037;SDS011;23843;51.320;12.340;2023-03-14T18:35:05;5.47;;;1.90;;
38037;SDS011;23843;51.320;12.340;2023-03-14T18:37:31;6.53;;;2.10;;
38037;SDS011;23843;51.320;12.340;2023-03-14T18:39:57;5.03;;;1.57;;
38037;SDS011;23843;51.320;12.340;2023-03-14T18:42:22;8.57;;;2.50;;
38037;SDS011;23843;51.320;12.340;2023-03-14T18:44:48;4.53;;;2.30;;
38037;SDS011;23843;51.320;12.340;2023-03-14T18:47:15;5.30;;;1.70;;
38037;SDS011;23843;51.320;12.340;2023-03-14T18:49:43;4.73;;;1.43;;
38037;SDS011;23843;51.320;12.340;2023-03-14T18:52:08;6.97;;;1.60;;
38037;SDS011;23843;51.320;12.340;2023-03-14T18:54:34;5.27;;;1.60;;
38037;SDS011;23843;51.320;12.340;2023-03-14T18:57:00;7.13;;;1.97;;
38037;SDS011;23843;51.320;12.340;2023-03-14T18:59:26;4.93;;;1.60;;
38037;SDS011;23843;51.320;12.340;2023-03-14T19:01:51;4.73;;;1.37;;
38037;SDS011;23843;51.320;12.340;2023-03-14T19:04:19;4.50;;;1.90;;
38037;SDS011;23843;51.320;12.340;2023-03-14T19:06:45;5.07;;;1.90;;
38037;SDS011;23843;51.320;12.340;2023-03-14T19:09:12;5.20;;;1.70;;
38037;SDS011;23843;51.320;12.340;2023-03-14T19:11:39;4.10;;;1.20;;
38037;SDS011;23843;51.320;12.340;2023-03-14T19:14:05;4.03;;;1.10;;
38037;SDS011;23843;51.320;12.340;2023-03-14T19:16:33;3.97;;;1.33;;
38037;SDS011;23843;51.320;12.340;2023-03-14T19:18:58;6.17;;;1.80;;
38037;SDS011;23843;51.320;12.340;2023-03-14T19:21:26;4.80;;;1.60;;
38037;SDS011;23843;51.320;12.340;2023-03-14T19:23:53;5.17;;;1.40;;
38037;SDS011;23843;51.320;12.340;2023-03-14T19:26:22;2.17;;;1.00;;
38037;SDS011;23843;51.320;12.340;2023-03-14T19:28:48;2.63;;;1.30;;
38037;SDS011;23843;51.320;12.340;2023-03-14T19:31:14;2.37;;;1.40;;
38037;SDS011;23843;51.320;12.340;2023-03-14T19:33:41;2.13;;;1.20;;
38037;SDS011;23843;51.320;12.340;2023-03-14T19:36:07;2.17;;;0.90;;
38037;SDS011;23843;51.320;12.340;2023-03-14T19:38:41;1.20;;;0.77;;
38037;SDS011;23843;51.320;12.340;2023-03-14T19:41:08;1.33;;;0.83;;
38037;SDS011;23843;51.320;12.340;2023-03-14T19:43:33;1.43;;;0.60;;
38037;SDS011;23843;51.320;12.340;2023-03-14T19:45:59;1.60;;;0.80;;
38037;SDS011;23843;51.320;12.340;2023-03-14T19:48:25;3.10;;;0.93;;
38037;SDS011;23843;51.320;12.340;2023-03-14T19:50:51;2.30;;;0.70;;
38037;SDS011;23843;51.320;12.340;2023-03-14T19:53:16;1.73;;;0.80;;
38037;SDS011;23843;51.320;12.340;2023-03-14T19:55:44;1.10;;;0.70;;
38037;SDS011;23843;51.320;12.340;2023-03-14T19:58:09;1.33;;;0.77;;
38037;SDS011;23843;51.320;12.340;2023-03-14T20:00:35;1.57;;;0.70;;
38037;SDS011;23843;51.320;12.340;2023-03-14T20:03:03;1.13;;;0.63;;
38037;SDS011;23843;51.320;12.340;2023-03-14T20:05:29;0.80;;;0.50;;
38037;SDS011;23843;51.320;12.340;2023-03-14T20:07:55;0.93;;;0.57;;
38037;SDS011;23843;51.320;12.340;2023-03-14T20:10:22;1.07;;;0.67;;
38037;SDS011;23843;51.320;12.340;2023-03-14T20:12:49;0.60;;;0.40;;
38037;SDS011;23843;51.320;12.340;2023-03-14T20:15:16;1.10;;;0.60;;
38037;SDS011;23843;51.320;12.340;2023-03-14T20:17:43;1.80;;;0.70;;
38037;SDS011;23843;51.320;12.340;2023-03-14T20:20:09;1.13;;;0.50;;
38037;SDS011;23843;51.320;12.340;2023-03-14T20:22:36;0.70;;;0.50;;